Rechercher aéroport 
image banner adimage banner adimage banner ad
image banner ad

KTVL - Lake Tahoe

Situé à South Lake Tahoe, United States

ICAO - TVL, IATA - TVL

Données fournies par Airmate  

Information générale

Coordonnées: N38°53'38" W119°59'43"
Élévation : 6268 feet MSL.
Variation magnétique : 16° East
Voir autres Aéroports à California

Données opérationnelles

Special qualification required
Heure actuelle UTC:
Heure actuelle locale:
Météo
METAR: KTVL 251353Z AUTO 18004KT 10SM BKN050 11/04 A3027 RMK AO2 SLP189 T01060044
TAF: KTVL 251120Z 2512/2612 18003KT P6SM SCT200 FM251600 03006KT 5SM FU HZ BKN035 FM252300 19007KT P6SM SCT090 SCT200 FM260400 VRB03KT P6SM SCT100 BKN200
Voir NOTAMs / SUP AIP / TFR affectant cet aéroport [VIEW]
Fréquences de communication: [VIEW]

Pistes:

Identifiant RWYQFULongueur (ft)Largeur (ft)SurfaceLDA (ft)
18193°8541100ASPH7017
3613°8541100ASPH5708

Coordonnées de l'aéroport

Adresse: South Lake Tahoe United States

Autres services d'aviation

Écoles de pilotage

Pacific North Helicopters

Pacific North Helicopters
sindre@pnh-us.com+1(530)544-2211

Vue satellite de KTVL